createdAt,value
2023-02-03T00:01:39.432Z,11.85
2023-02-03T00:04:07.574Z,11.45
2023-02-03T00:06:36.008Z,11.27
2023-02-03T00:09:04.748Z,10.15
2023-02-03T00:11:33.996Z,10.65
2023-02-03T00:14:02.246Z,10.40
2023-02-03T00:16:31.604Z,8.73
2023-02-03T00:18:59.899Z,8.95
2023-02-03T00:21:28.135Z,9.43
2023-02-03T00:23:56.249Z,10.65
2023-02-03T00:26:26.253Z,10.15
2023-02-03T00:28:54.217Z,10.43
2023-02-03T00:31:25.502Z,8.70
2023-02-03T00:33:59.371Z,9.95
2023-02-03T00:36:28.538Z,9.18
2023-02-03T00:38:56.822Z,11.20
2023-02-03T00:41:25.012Z,8.90
2023-02-03T00:43:53.362Z,9.60
2023-02-03T00:46:21.535Z,8.23
2023-02-03T00:48:49.811Z,9.88
2023-02-03T00:51:19.484Z,10.85
2023-02-03T00:53:48.665Z,8.40
2023-02-03T00:56:16.745Z,10.45
2023-02-03T00:58:45.777Z,8.75
2023-02-03T01:01:13.997Z,8.80
2023-02-03T01:03:42.241Z,10.68
2023-02-03T01:06:14.043Z,8.50
2023-02-03T01:08:44.016Z,9.63
2023-02-03T01:11:14.176Z,10.38
2023-02-03T01:13:42.769Z,10.52
2023-02-03T01:16:12.326Z,8.65
2023-02-03T01:18:41.405Z,8.00
2023-02-03T01:21:13.840Z,7.90
2023-02-03T01:23:44.110Z,8.82
2023-02-03T01:26:14.333Z,9.70
2023-02-03T01:28:43.247Z,10.27
2023-02-03T01:31:14.740Z,9.48
2023-02-03T01:33:46.415Z,9.07
2023-02-03T01:36:15.437Z,7.72
2023-02-03T01:38:45.750Z,8.77
2023-02-03T01:41:17.634Z,7.47
2023-02-03T01:43:49.167Z,9.55
2023-02-03T01:46:28.924Z,8.02
2023-02-03T01:49:05.424Z,7.78
2023-02-03T01:51:34.513Z,9.00
2023-02-03T01:54:04.538Z,6.68
2023-02-03T01:56:40.456Z,7.60
2023-02-03T01:59:09.714Z,6.95
2023-02-03T02:01:38.795Z,8.05
2023-02-03T02:04:08.108Z,9.55
2023-02-03T02:06:36.556Z,10.35
2023-02-03T02:09:06.528Z,8.30
2023-02-03T02:11:34.808Z,8.07
2023-02-03T02:14:04.038Z,8.18
2023-02-03T02:16:44.238Z,8.27
2023-02-03T02:19:45.996Z,7.63
2023-02-03T02:22:21.667Z,7.85
2023-02-03T02:25:26.851Z,8.38
2023-02-03T02:28:26.830Z,7.25
2023-02-03T02:31:24.290Z,9.73
2023-02-03T02:34:02.526Z,6.22
2023-02-03T02:36:40.610Z,7.28
2023-02-03T02:39:15.830Z,5.90
2023-02-03T02:41:49.037Z,5.82
2023-02-03T02:44:22.618Z,5.80
2023-02-03T02:46:55.188Z,5.45
2023-02-03T02:49:30.530Z,4.35
2023-02-03T02:52:01.811Z,6.18
2023-02-03T02:54:33.055Z,5.95
2023-02-03T02:57:04.771Z,6.00
2023-02-03T02:59:33.968Z,4.53
2023-02-03T03:02:02.331Z,3.95
2023-02-03T03:04:35.311Z,4.07
2023-02-03T03:07:09.655Z,4.22
2023-02-03T03:09:44.016Z,4.50
2023-02-03T03:12:16.389Z,4.47
2023-02-03T03:14:51.373Z,3.45
2023-02-03T03:17:26.526Z,4.03
2023-02-03T03:19:58.946Z,4.18
2023-02-03T03:22:34.751Z,4.63
2023-02-03T03:25:09.870Z,4.55
2023-02-03T03:27:40.783Z,4.80
2023-02-03T03:30:14.107Z,3.55
2023-02-03T03:32:42.720Z,3.33
2023-02-03T03:35:12.865Z,3.85
2023-02-03T03:37:45.584Z,2.60
2023-02-03T03:40:20.106Z,3.00
2023-02-03T03:42:52.782Z,3.40
2023-02-03T03:45:26.715Z,3.45
2023-02-03T03:47:58.555Z,2.67
2023-02-03T03:50:33.742Z,2.20
2023-02-03T03:53:04.322Z,2.05
2023-02-03T03:55:36.500Z,2.20
2023-02-03T03:58:09.080Z,2.30
2023-02-03T04:00:40.106Z,1.73
2023-02-03T04:03:15.081Z,1.55
2023-02-03T04:05:45.706Z,1.80
2023-02-03T04:08:14.166Z,0.77
2023-02-03T04:10:44.168Z,1.60
2023-02-03T04:13:16.086Z,1.17
2023-02-03T04:15:44.488Z,0.95
2023-02-03T04:18:14.966Z,0.85
2023-02-03T04:20:45.416Z,1.00
2023-02-03T04:23:13.566Z,0.60
2023-02-03T04:25:41.660Z,0.85
2023-02-03T04:28:10.513Z,0.80
2023-02-03T04:30:38.953Z,0.65
2023-02-03T04:33:07.180Z,0.85
2023-02-03T04:35:35.460Z,0.57
2023-02-03T04:38:05.080Z,0.75
2023-02-03T04:40:35.011Z,0.63
2023-02-03T04:43:08.468Z,1.25
2023-02-03T04:45:36.891Z,0.63
2023-02-03T04:48:05.876Z,1.10
2023-02-03T04:50:34.152Z,1.48
2023-02-03T04:53:02.256Z,0.90
2023-02-03T04:55:31.868Z,1.10
2023-02-03T04:58:01.586Z,1.25
2023-02-03T05:00:30.824Z,1.42
2023-02-03T05:02:59.276Z,1.40
2023-02-03T05:05:28.025Z,1.52
2023-02-03T05:07:56.269Z,2.00
2023-02-03T05:10:25.011Z,1.20
2023-02-03T05:12:54.540Z,1.10
2023-02-03T05:15:22.683Z,2.20
2023-02-03T05:17:53.015Z,2.05
2023-02-03T05:20:21.922Z,2.40
2023-02-03T05:22:50.677Z,1.30
2023-02-03T05:25:19.282Z,1.95
2023-02-03T05:27:47.560Z,2.00
2023-02-03T05:30:17.446Z,1.90
2023-02-03T05:32:45.777Z,2.05
2023-02-03T05:35:14.041Z,1.83
2023-02-03T05:37:42.374Z,3.20
2023-02-03T05:40:29.159Z,1.45
2023-02-03T05:42:57.570Z,1.40
2023-02-03T05:45:27.408Z,2.25
2023-02-03T05:47:55.818Z,1.23
2023-02-03T05:50:24.566Z,1.80
2023-02-03T05:52:53.534Z,2.00
2023-02-03T05:55:21.656Z,1.70
2023-02-03T05:57:49.986Z,1.50
2023-02-03T06:00:18.833Z,2.33
2023-02-03T06:02:52.954Z,1.52
2023-02-03T06:05:21.235Z,2.25
2023-02-03T06:07:49.853Z,2.30
2023-02-03T06:10:18.699Z,1.58
2023-02-03T06:12:47.115Z,2.55
2023-02-03T06:15:16.339Z,1.80
2023-02-03T06:17:45.816Z,2.15
2023-02-03T06:20:17.999Z,2.25
2023-02-03T06:22:46.681Z,2.67
2023-02-03T06:25:14.892Z,2.53
2023-02-03T06:27:43.678Z,2.97
2023-02-03T06:30:13.696Z,2.90
2023-02-03T06:32:42.165Z,3.15
2023-02-03T06:35:11.086Z,2.75
2023-02-03T06:37:41.487Z,3.00
2023-02-03T06:40:11.332Z,3.05
2023-02-03T06:42:40.077Z,5.13
2023-02-03T06:45:10.095Z,4.65
2023-02-03T06:47:41.449Z,6.53
2023-02-03T06:50:11.447Z,6.43
2023-02-03T06:52:46.361Z,7.93
2023-02-03T06:55:15.387Z,7.63
2023-02-03T06:57:48.270Z,9.77
2023-02-03T07:00:19.331Z,8.48
2023-02-03T07:02:48.555Z,9.18
2023-02-03T07:05:17.558Z,8.68
2023-02-03T07:07:47.569Z,9.82
2023-02-03T07:10:16.273Z,9.63
2023-02-03T07:12:44.640Z,9.75
2023-02-03T07:15:13.684Z,10.60
2023-02-03T07:17:42.326Z,11.20
2023-02-03T07:20:12.273Z,9.70
2023-02-03T07:22:42.776Z,11.13
2023-02-03T07:25:12.360Z,10.93
2023-02-03T07:27:41.214Z,11.60
2023-02-03T07:30:11.083Z,10.50
2023-02-03T07:32:39.749Z,10.73
2023-02-03T07:35:08.773Z,9.90
2023-02-03T07:37:37.018Z,9.80
2023-02-03T07:40:05.972Z,9.15
2023-02-03T07:42:35.789Z,9.82
2023-02-03T07:45:04.560Z,8.98
2023-02-03T07:47:33.126Z,7.90
2023-02-03T07:50:01.599Z,8.75
2023-02-03T07:52:30.349Z,8.30
2023-02-03T07:54:58.482Z,8.05
2023-02-03T07:57:27.067Z,6.88
2023-02-03T07:59:56.830Z,8.32
2023-02-03T08:02:25.415Z,9.00
2023-02-03T08:04:53.708Z,8.18
2023-02-03T08:07:22.339Z,8.25
2023-02-03T08:09:51.029Z,7.15
2023-02-03T08:12:19.713Z,7.45
2023-02-03T08:14:48.489Z,8.30
2023-02-03T08:17:18.486Z,8.25
2023-02-03T08:19:46.825Z,7.95
2023-02-03T08:22:16.846Z,7.13
2023-02-03T08:24:46.182Z,7.20
2023-02-03T08:27:15.107Z,5.53
2023-02-03T08:29:43.686Z,7.53
2023-02-03T08:32:13.350Z,7.88
2023-02-03T08:34:43.327Z,6.22
2023-02-03T08:37:13.069Z,6.75
2023-02-03T08:39:41.851Z,7.15
2023-02-03T08:42:10.675Z,5.43
2023-02-03T08:44:39.655Z,4.53
2023-02-03T08:47:09.065Z,5.63
2023-02-03T08:49:40.527Z,4.75
2023-02-03T08:52:13.395Z,4.50
2023-02-03T08:54:41.734Z,5.05
2023-02-03T08:57:11.034Z,4.38
2023-02-03T08:59:42.168Z,4.00
2023-02-03T09:02:15.184Z,4.88
2023-02-03T09:04:43.886Z,4.10
2023-02-03T09:07:15.689Z,4.80
2023-02-03T09:09:46.459Z,5.13
2023-02-03T09:12:14.825Z,4.28
2023-02-03T09:14:43.361Z,3.35
2023-02-03T09:17:12.431Z,4.00
2023-02-03T09:19:41.309Z,3.90
2023-02-03T09:22:09.929Z,3.17
2023-02-03T09:24:39.859Z,3.17
2023-02-03T09:27:08.614Z,3.90
2023-02-03T09:29:37.043Z,3.13
2023-02-03T09:32:09.021Z,3.85
2023-02-03T09:34:37.864Z,4.32
2023-02-03T09:37:06.080Z,3.97
2023-02-03T09:39:34.867Z,3.83
2023-02-03T09:42:38.853Z,3.35
2023-02-03T09:45:18.964Z,3.35
2023-02-03T09:47:54.176Z,2.97
2023-02-03T09:50:26.155Z,4.22
2023-02-03T09:52:55.410Z,4.13
2023-02-03T09:55:31.208Z,2.90
2023-02-03T09:58:05.489Z,2.88
2023-02-03T10:00:37.884Z,3.83
2023-02-03T10:03:14.644Z,3.00
2023-02-03T10:05:53.830Z,4.25
2023-02-03T10:08:35.149Z,2.80
2023-02-03T10:11:12.105Z,3.85
2023-02-03T10:13:55.131Z,2.90
2023-02-03T10:16:37.276Z,3.13
2023-02-03T10:19:12.681Z,3.50
2023-02-03T10:21:45.750Z,3.13
2023-02-03T10:24:18.374Z,2.80
2023-02-03T10:26:47.689Z,3.05
2023-02-03T10:29:21.857Z,2.70
2023-02-03T10:31:50.930Z,2.83
2023-02-03T10:34:20.675Z,3.53
2023-02-03T10:36:57.669Z,3.05
2023-02-03T10:39:36.627Z,2.85
2023-02-03T10:42:06.495Z,3.40
2023-02-03T10:44:51.050Z,3.60
2023-02-03T10:47:26.286Z,3.20
2023-02-03T10:49:58.425Z,2.85
2023-02-03T10:52:32.233Z,3.08
2023-02-03T10:55:02.673Z,2.35
2023-02-03T10:57:32.816Z,3.20
2023-02-03T11:00:24.215Z,2.72
2023-02-03T11:03:05.467Z,2.97
2023-02-03T11:05:36.722Z,2.92
2023-02-03T11:08:05.915Z,3.15
2023-02-03T11:10:36.928Z,2.65
2023-02-03T11:13:20.445Z,3.83
2023-02-03T11:15:57.105Z,2.45
2023-02-03T11:18:53.706Z,3.17
2023-02-03T11:21:24.760Z,2.13
2023-02-03T11:24:04.433Z,2.70
2023-02-03T11:26:37.660Z,2.70
2023-02-03T11:29:08.641Z,2.35
2023-02-03T11:31:38.853Z,3.17
2023-02-03T11:34:29.489Z,2.53
2023-02-03T11:37:11.263Z,2.90
2023-02-03T11:39:40.073Z,2.78
2023-02-03T11:42:23.908Z,1.83
2023-02-03T11:44:52.472Z,2.30
2023-02-03T11:47:23.860Z,3.40
2023-02-03T11:50:26.152Z,1.90
2023-02-03T11:53:13.693Z,2.80
2023-02-03T11:55:53.716Z,2.95
2023-02-03T11:58:50.227Z,2.70
2023-02-03T12:01:35.611Z,2.90
2023-02-03T12:04:34.189Z,3.13
2023-02-03T12:07:23.672Z,2.03
2023-02-03T12:10:01.463Z,2.05
2023-02-03T12:12:46.139Z,1.73
2023-02-03T12:15:28.476Z,2.75
2023-02-03T12:18:13.149Z,2.22
2023-02-03T12:20:56.789Z,1.73
2023-02-03T12:23:41.145Z,2.42
2023-02-03T12:26:21.729Z,2.38
2023-02-03T12:29:01.718Z,2.30
2023-02-03T12:31:39.207Z,1.73
2023-02-03T12:34:17.112Z,2.40
2023-02-03T12:36:53.543Z,3.00
2023-02-03T12:39:29.988Z,2.05
2023-02-03T12:42:04.788Z,1.83
2023-02-03T12:44:41.949Z,2.85
2023-02-03T12:47:19.621Z,2.75
2023-02-03T12:49:55.597Z,2.70
2023-02-03T12:52:30.004Z,1.90
2023-02-03T12:55:08.382Z,2.20
2023-02-03T12:57:42.184Z,2.25
2023-02-03T13:00:27.045Z,1.40
2023-02-03T13:03:10.495Z,1.67
2023-02-03T13:05:44.879Z,2.80
2023-02-03T13:08:23.494Z,1.85
2023-02-03T13:10:59.034Z,1.73
2023-02-03T13:13:36.852Z,2.10
2023-02-03T13:16:10.472Z,2.00
2023-02-03T13:18:42.539Z,2.15
2023-02-03T13:21:12.601Z,2.10
2023-02-03T13:23:45.595Z,2.10
2023-02-03T13:26:44.082Z,1.90
2023-02-03T13:29:26.842Z,1.05
2023-02-03T13:32:12.078Z,0.90
2023-02-03T13:34:53.434Z,1.42
2023-02-03T13:37:45.548Z,3.17
2023-02-03T13:40:27.221Z,1.50
2023-02-03T13:42:58.459Z,2.38
2023-02-03T13:45:29.897Z,1.67
2023-02-03T13:48:09.564Z,3.00
2023-02-03T13:50:38.876Z,3.65
2023-02-03T13:53:09.301Z,5.95
2023-02-03T13:55:41.650Z,2.58
2023-02-03T13:58:22.013Z,4.25
2023-02-03T14:01:07.089Z,2.60
2023-02-03T14:03:45.100Z,3.15
2023-02-03T14:06:59.936Z,4.03
2023-02-03T14:09:42.522Z,4.55
2023-02-03T14:12:21.864Z,3.65
2023-02-03T14:15:05.234Z,3.35
2023-02-03T14:18:06.114Z,3.03
2023-02-03T14:20:51.383Z,2.85
2023-02-03T14:23:24.839Z,3.03
2023-02-03T14:25:57.390Z,3.00
2023-02-03T14:28:33.344Z,2.95
2023-02-03T14:31:12.805Z,2.15
2023-02-03T14:34:06.292Z,3.17
2023-02-03T14:36:42.643Z,2.53
2023-02-03T14:39:56.418Z,3.22
2023-02-03T14:43:09.536Z,2.47
2023-02-03T14:46:08.485Z,2.70
2023-02-03T14:48:53.621Z,2.40
2023-02-03T14:51:42.126Z,2.65
2023-02-03T14:54:38.831Z,3.45
2023-02-03T14:57:20.194Z,2.47
2023-02-03T14:59:52.765Z,2.17
2023-02-03T15:02:26.603Z,2.72
2023-02-03T15:05:33.666Z,2.17
2023-02-03T15:08:03.557Z,2.38
2023-02-03T15:10:43.555Z,1.85
2023-02-03T15:13:26.088Z,2.42
2023-02-03T15:15:56.607Z,2.90
2023-02-03T15:18:32.210Z,2.95
2023-02-03T15:21:02.704Z,3.05
2023-02-03T15:23:38.790Z,1.85
2023-02-03T15:26:15.210Z,3.33
2023-02-03T15:28:43.580Z,3.63
2023-02-03T15:31:21.576Z,4.82
2023-02-03T15:33:54.225Z,2.50
2023-02-03T15:36:28.776Z,2.88
2023-02-03T15:39:06.655Z,3.05
2023-02-03T15:41:35.773Z,2.60
2023-02-03T15:44:09.218Z,5.05
2023-02-03T15:46:42.165Z,2.05
2023-02-03T15:49:18.204Z,3.20
2023-02-03T15:51:50.691Z,3.10
2023-02-03T15:54:24.462Z,3.20
2023-02-03T15:57:01.633Z,2.67
2023-02-03T15:59:35.183Z,5.50
2023-02-03T16:02:14.608Z,2.55
2023-02-03T16:04:44.861Z,2.50
2023-02-03T16:07:20.619Z,2.30
2023-02-03T16:09:49.014Z,2.47
2023-02-03T16:12:23.461Z,1.52
2023-02-03T16:14:54.957Z,2.67
2023-02-03T16:17:31.680Z,3.05
2023-02-03T16:20:23.398Z,2.70
2023-02-03T16:23:04.531Z,4.63
2023-02-03T16:25:35.273Z,2.65
2023-02-03T16:28:32.426Z,3.17
2023-02-03T16:31:21.768Z,3.10
2023-02-03T16:34:09.223Z,3.15
2023-02-03T16:37:01.277Z,3.78
2023-02-03T16:39:47.644Z,3.28
2023-02-03T16:42:36.032Z,4.18
2023-02-03T16:45:23.310Z,3.20
2023-02-03T16:48:09.242Z,3.85
2023-02-03T16:50:53.883Z,3.40
2023-02-03T16:53:24.865Z,4.25
2023-02-03T16:55:55.357Z,3.35
2023-02-03T16:58:23.736Z,3.40
2023-02-03T17:00:53.781Z,2.95
2023-02-03T17:03:24.378Z,2.30
2023-02-03T17:05:53.190Z,2.63
2023-02-03T17:08:25.515Z,3.35
2023-02-03T17:10:54.565Z,3.20
2023-02-03T17:13:24.503Z,3.88
2023-02-03T17:15:53.674Z,2.55
2023-02-03T17:18:22.665Z,2.80
2023-02-03T17:20:50.793Z,2.60
2023-02-03T17:23:19.546Z,3.08
2023-02-03T17:25:50.778Z,3.45
2023-02-03T17:28:19.616Z,3.50
2023-02-03T17:30:57.266Z,2.72
2023-02-03T17:33:25.842Z,4.13
2023-02-03T17:36:03.037Z,3.53
2023-02-03T17:38:31.727Z,3.83
2023-02-03T17:54:57.765Z,3.55
2023-02-03T17:57:27.420Z,2.88
2023-02-03T17:59:56.806Z,2.63
2023-02-03T18:02:24.860Z,3.65
2023-02-03T18:04:53.309Z,4.20
2023-02-03T18:07:21.954Z,3.67
2023-02-03T18:09:50.150Z,3.05
2023-02-03T18:12:18.821Z,4.35
2023-02-03T18:14:49.469Z,3.60
2023-02-03T18:17:17.515Z,2.60
2023-02-03T18:19:49.246Z,3.35
2023-02-03T18:22:23.842Z,3.15
2023-02-03T18:24:52.503Z,2.50
2023-02-03T18:27:21.281Z,3.13
2023-02-03T18:29:51.689Z,2.88
2023-02-03T18:32:20.082Z,2.90
2023-02-03T18:34:48.330Z,2.20
2023-02-03T18:37:16.460Z,2.50
2023-02-03T18:39:45.376Z,2.83
2023-02-03T18:42:14.192Z,3.20
2023-02-03T18:44:44.199Z,3.42
2023-02-03T18:47:13.951Z,2.83
2023-02-03T18:49:42.336Z,3.05
2023-02-03T18:52:10.353Z,3.33
2023-02-03T18:54:39.047Z,2.35
2023-02-03T18:57:10.018Z,3.17
2023-02-03T18:59:38.454Z,2.95
2023-02-03T19:02:07.840Z,3.83
2023-02-03T19:04:37.677Z,2.70
2023-02-03T19:07:06.268Z,4.28
2023-02-03T19:09:34.766Z,3.00
2023-02-03T19:12:04.280Z,2.17
2023-02-03T19:14:32.997Z,2.33
2023-02-03T19:17:01.457Z,3.03
2023-02-03T19:19:30.411Z,3.95
2023-02-03T19:22:00.003Z,3.10
2023-02-03T19:24:28.541Z,4.18
2023-02-03T19:26:56.904Z,5.03
2023-02-03T19:29:24.994Z,4.32
2023-02-03T19:31:53.784Z,2.60
2023-02-03T19:34:22.332Z,2.85
2023-02-03T19:36:52.617Z,3.30
2023-02-03T19:39:22.205Z,3.40
2023-02-03T19:41:50.428Z,3.78
2023-02-03T19:44:18.714Z,2.97
2023-02-03T19:46:47.229Z,2.58
2023-02-03T19:49:15.574Z,3.88
2023-02-03T19:51:45.760Z,3.58
2023-02-03T19:54:15.797Z,3.42
2023-02-03T19:56:45.628Z,3.35
2023-02-03T19:59:13.953Z,4.07
2023-02-03T20:01:42.469Z,3.75
2023-02-03T20:04:36.399Z,2.53
2023-02-03T20:07:04.856Z,2.97
2023-02-03T20:09:33.538Z,3.67
2023-02-03T20:12:03.544Z,3.00
2023-02-03T20:14:32.791Z,2.60
2023-02-03T20:17:00.918Z,4.30
2023-02-03T20:19:28.988Z,3.17
2023-02-03T20:21:57.594Z,4.13
2023-02-03T20:24:26.237Z,4.45
2023-02-03T20:26:54.915Z,3.67
2023-02-03T20:29:24.630Z,2.83
2023-02-03T20:31:54.849Z,4.13
2023-02-03T20:34:23.294Z,3.83
2023-02-03T20:36:51.656Z,3.10
2023-02-03T20:39:21.319Z,3.42
2023-02-03T20:41:49.953Z,2.58
2023-02-03T20:44:18.372Z,2.75
2023-02-03T20:46:47.880Z,2.20
2023-02-03T20:49:18.070Z,2.22
2023-02-03T20:51:46.807Z,2.80
2023-02-03T20:54:17.768Z,4.53
2023-02-03T20:56:46.640Z,2.08
2023-02-03T20:59:18.001Z,3.90
2023-02-03T21:01:49.379Z,3.25
2023-02-03T21:04:37.985Z,2.42
2023-02-03T21:07:14.211Z,2.38
2023-02-03T21:09:42.646Z,2.28
2023-02-03T21:12:13.239Z,2.80
2023-02-03T21:14:43.932Z,2.00
2023-02-03T21:17:22.443Z,3.38
2023-02-03T21:19:51.398Z,1.17
2023-02-03T21:22:23.237Z,2.28
2023-02-03T21:24:54.367Z,2.55
2023-02-03T21:27:28.912Z,2.00
2023-02-03T21:29:58.677Z,2.75
2023-02-03T21:32:38.271Z,2.20
2023-02-03T21:35:24.122Z,1.95
2023-02-03T21:38:01.823Z,2.40
2023-02-03T21:40:32.409Z,1.73
2023-02-03T21:43:03.422Z,1.63
2023-02-03T21:45:42.404Z,2.35
2023-02-03T21:48:39.971Z,2.05
2023-02-03T21:51:16.897Z,2.67
2023-02-03T21:53:52.496Z,2.45
2023-02-03T21:56:22.581Z,1.95
2023-02-03T21:58:51.973Z,2.45
2023-02-03T22:01:26.226Z,3.72
2023-02-03T22:03:59.096Z,2.55
2023-02-03T22:06:29.400Z,3.45
2023-02-03T22:08:59.033Z,4.03
2023-02-03T22:11:29.133Z,2.85
2023-02-03T22:13:57.896Z,2.78
2023-02-03T22:16:26.972Z,2.25
2023-02-03T22:18:57.201Z,3.00
2023-02-03T22:21:25.320Z,1.98
2023-02-03T22:23:53.565Z,3.53
2023-02-03T22:26:22.354Z,1.83
2023-02-03T22:28:51.242Z,2.30
2023-02-03T22:31:19.924Z,1.77
2023-02-03T22:33:48.440Z,2.65
2023-02-03T22:36:18.370Z,1.92
2023-02-03T22:38:46.756Z,1.60
2023-02-03T22:41:16.718Z,1.75
2023-02-03T22:43:44.908Z,1.45
2023-02-03T22:46:13.384Z,1.80
2023-02-03T22:48:41.548Z,1.20
2023-02-03T22:51:13.470Z,1.20
2023-02-03T22:53:43.805Z,1.80
2023-02-03T22:56:11.903Z,1.20
2023-02-03T22:58:40.506Z,1.27
2023-02-03T23:01:08.525Z,1.58
2023-02-03T23:03:36.956Z,1.10
2023-02-03T23:06:05.396Z,1.52
2023-02-03T23:08:33.511Z,1.52
2023-02-03T23:11:03.421Z,1.05
2023-02-03T23:13:31.526Z,0.82
2023-02-03T23:15:59.871Z,1.00
2023-02-03T23:18:28.109Z,0.80
2023-02-03T23:20:56.216Z,1.35
2023-02-03T23:23:24.728Z,0.93
2023-02-03T23:25:53.316Z,1.20
2023-02-03T23:28:23.020Z,1.02
2023-02-03T23:30:51.407Z,0.75
2023-02-03T23:33:19.558Z,0.80
2023-02-03T23:35:46.762Z,1.10
2023-02-03T23:38:15.579Z,0.80
2023-02-03T23:40:45.711Z,0.70
2023-02-03T23:43:14.085Z,0.77
2023-02-03T23:45:43.768Z,0.40
2023-02-03T23:48:12.624Z,0.90
2023-02-03T23:50:41.281Z,0.57
2023-02-03T23:53:09.594Z,0.70
2023-02-03T23:55:38.260Z,0.70
2023-02-03T23:58:06.838Z,0.30
